Friday, October 19, 2018, 2:53 AM EDT
Back to Local

KUNV, State College, University Park Airport

Location: State College, PA, United States Lat: 40.85
Local Time: 2:53 AM EDT ( 6:53 GMT) Lon: -77.85
Time Zone: US/Eastern Elev: 1240 ft

Show me the last for .
Show Decoded

2018-10-19 02:35 METAR KUNV 190635Z AUTO 00000KT 10SM CLR 02/M01 A3033 RMK AO2 T00221012 =
2018-10-19 02:15 METAR KUNV 190615Z AUTO 00000KT 10SM CLR 02/M01 A3033 RMK AO2 T00181010 =
2018-10-19 01:55 METAR KUNV 190555Z AUTO 00000KT 10SM CLR 02/M01 A3033 RMK AO2 T00151010 10061
                 20015 =
2018-10-19 01:35 METAR KUNV 190535Z AUTO 00000KT 10SM CLR 02/M01 A3033 RMK AO2 T00161012 =
2018-10-19 01:15 METAR KUNV 190515Z AUTO 00000KT 10SM CLR 02/M01 A3033 RMK AO2 T00211010 =
2018-10-19 00:55 METAR KUNV 190455Z AUTO 00000KT 10SM CLR 03/M01 A3034 RMK AO2 T00261008 =
2018-10-19 00:35 METAR KUNV 190435Z AUTO 00000KT 10SM CLR 02/M01 A3034 RMK AO2 T00231006 =
2018-10-19 00:15 METAR KUNV 190415Z AUTO 00000KT 10SM CLR 02/M01 A3034 RMK AO2 T00201007 =
2018-10-18 23:55 METAR KUNV 190355Z AUTO 21003KT 10SM CLR 02/M01 A3034 RMK AO2 T00211006
                 400980020 =
2018-10-18 23:35 METAR KUNV 190335Z AUTO 20003KT 10SM CLR 03/00 A3034 RMK AO2 T00261005 =
2018-10-18 23:15 METAR KUNV 190315Z AUTO 20004KT 10SM CLR 03/00 A3034 RMK AO2 T00271005 =
2018-10-18 22:55 METAR KUNV 190255Z AUTO 19004KT 10SM CLR 03/00 A3035 RMK AO2 T00291004 =
2018-10-18 22:35 METAR KUNV 190235Z AUTO 00000KT 10SM CLR 04/00 A3035 RMK AO2 T00351003 =
2018-10-18 22:15 METAR KUNV 190215Z AUTO 00000KT 10SM CLR 04/00 A3035 RMK AO2 T00351005 =
2018-10-18 21:53 METAR KUNV 190153Z 20005KT 10SM SKC 03/00 A3036 =
2018-10-18 20:53 METAR KUNV 190053Z 18005KT 10SM SKC 04/M01 A3036 =
2018-10-18 19:53 METAR KUNV 182353Z 24005KT 10SM SKC 06/M01 A3036 =
2018-10-18 18:53 METAR KUNV 182253Z 27007KT 10SM SKC 07/M01 A3037 =
2018-10-18 17:53 METAR KUNV 182153Z 26008KT 10SM SKC 09/M02 A3036 =
2018-10-18 16:53 METAR KUNV 182053Z 28012KT 10SM SKC 09/M02 A3036 =
2018-10-18 15:53 METAR KUNV 181953Z 27009G16KT 10SM SKC 10/M02 A3036 =
2018-10-18 14:53 METAR KUNV 181853Z 28012KT 10SM SKC 10/M02 A3037 =
2018-10-18 13:53 METAR KUNV 181753Z 31008G15KT 10SM SKC 09/M03 A3039 =
2018-10-18 12:53 METAR KUNV 181653Z 32006KT 10SM SCT046 08/M02 A3041 =
2018-10-18 11:53 METAR KUNV 181553Z 33007KT 10SM SCT042 08/M03 A3042 =
2018-10-18 10:53 METAR KUNV 181453Z 35006KT 10SM BKN038 06/M03 A3042 =
2018-10-18 09:53 METAR KUNV 181353Z 32008KT 10SM BKN040 04/M04 A3041 =
2018-10-18 08:53 METAR KUNV 181253Z 31008KT 10SM SCT038 BKN045 03/M04 A3040 =
2018-10-18 07:53 METAR KUNV 181153Z 31008G18KT 10SM SCT038 SCT043 03/M03 A3037 =
2018-10-18 06:53 METAR KUNV 181053Z 31006G18KT 10SM BKN037 OVC047 04/M02 A3035 =
2018-10-18 05:53 METAR KUNV 180953Z 32010KT 10SM BKN037 OVC046 04/M02 A3033 =
2018-10-18 05:35 METAR KUNV 180935Z AUTO 34009KT 10SM SCT037 BKN043 OVC050 05/M02 A3032 RMK AO2
                 T00451016 =
2018-10-18 05:15 METAR KUNV 180915Z AUTO 32007KT 10SM SCT041 OVC050 05/M02 A3031 RMK AO2
                 T00461019 =
2018-10-18 04:55 METAR KUNV 180855Z AUTO 31008KT 10SM SCT039 OVC050 05/M02 A3030 RMK AO2
                 T00471020 =
2018-10-18 04:35 METAR KUNV 180835Z AUTO 31010G17KT 10SM OVC050 05/M02 A3029 RMK AO2 T00471021 =
2018-10-18 04:15 METAR KUNV 180815Z AUTO 31008KT 10SM OVC050 05/M02 A3028 RMK AO2 T00471020 =
2018-10-18 04:00 METAR KUNV 180800Z AUTO 30006KT 10SM SCT043 OVC050 05/M02 A3028 RMK AO2
                 T00471019 =
2018-10-18 03:35 METAR KUNV 180735Z AUTO 31007G15KT 10SM OVC055 05/M02 A3027 RMK AO2 T00471017 =
2018-10-18 03:15 METAR KUNV 180715Z AUTO 27007KT 10SM OVC065 05/M01 A3027 RMK AO2 T00451015 =
2018-10-18 02:55 METAR KUNV 180655Z AUTO 26008KT 10SM OVC065 04/M02 A3027 RMK AO2 T00441016 =

Support USWX by starting your Amazon purchase here.